Time;durP1;ratioP1;P1;durP2;ratioP2;P2;SDS_P1;SDS_P2;PMS_P1;PMS_P2;Temp;Humidity;BMP_temperature;BMP_pressure;BME280_temperature;BME280_humidity;BME280_pressure;Samples;Min_cycle;Max_cycle;Signal;HPM_P1;HPM_P2
2021/01/10 00:00:01;;;;;;;21.38;12.70;;;6.90;67.80;;;;;;2101840;28;20021;-59
2021/01/10 00:01:03;;;;;;;16.75;11.50;;;6.80;67.70;;;;;;2101431;28;20339;-59
2021/01/10 00:02:04;;;;;;;16.23;11.98;;;6.80;67.70;;;;;;2104212;28;20649;-59
2021/01/10 00:03:05;;;;;;;18.95;12.80;;;6.80;67.70;;;;;;2101974;28;20036;-59
2021/01/10 00:04:06;;;;;;;18.00;11.93;;;6.80;67.70;;;;;;2102187;28;20512;-59
2021/01/10 00:05:08;;;;;;;16.65;12.00;;;6.90;67.80;;;;;;2097843;28;20044;-59
2021/01/10 00:06:09;;;;;;;21.17;13.27;;;6.90;67.80;;;;;;2098330;28;20115;-59
2021/01/10 00:07:09;;;;;;;18.10;11.68;;;6.90;67.80;;;;;;2098265;28;20028;-59
2021/01/10 00:08:10;;;;;;;16.98;11.93;;;6.90;67.80;;;;;;2098501;28;20048;-60
2021/01/10 00:09:12;;;;;;;18.98;12.93;;;6.90;67.80;;;;;;2097507;28;20035;-59
2021/01/10 00:10:13;;;;;;;20.48;12.90;;;6.90;67.70;;;;;;2096384;28;20333;-59
2021/01/10 00:11:14;;;;;;;18.80;12.52;;;6.90;67.70;;;;;;2102449;28;20111;-59
2021/01/10 00:12:22;;;;;;;17.45;12.48;;;6.90;67.70;;;;;;2099189;28;20019;-59
2021/01/10 00:13:22;;;;;;;19.08;12.75;;;6.90;67.70;;;;;;2096859;28;20024;-59
2021/01/10 00:14:23;;;;;;;18.33;13.00;;;6.90;67.70;;;;;;2095982;28;20114;-59
2021/01/10 00:15:24;;;;;;;22.67;13.30;;;6.90;67.70;;;;;;2104322;28;20411;-59
2021/01/10 00:16:24;;;;;;;16.63;11.85;;;6.90;67.60;;;;;;2103185;28;20048;-58
2021/01/10 00:17:25;;;;;;;22.52;13.73;;;6.90;67.60;;;;;;2095990;28;20025;-59
2021/01/10 00:18:25;;;;;;;21.85;13.30;;;6.90;67.60;;;;;;2098179;28;20317;-59
2021/01/10 00:19:26;;;;;;;19.98;13.07;;;6.90;67.60;;;;;;2098824;28;20031;-58
2021/01/10 00:20:27;;;;;;;18.05;12.55;;;6.90;67.60;;;;;;2098803;28;20079;-59
2021/01/10 00:21:35;;;;;;;18.35;12.88;;;6.90;67.60;;;;;;2100934;28;20116;-59
2021/01/10 00:22:36;;;;;;;21.02;13.48;;;6.90;67.50;;;;;;2098725;28;20495;-59
2021/01/10 00:23:37;;;;;;;18.35;12.13;;;6.90;67.50;;;;;;2092809;28;20830;-58
2021/01/10 00:24:38;;;;;;;21.25;12.95;;;6.90;67.40;;;;;;2097650;28;20009;-59
2021/01/10 00:25:38;;;;;;;17.80;12.65;;;6.90;67.40;;;;;;2099179;28;20024;-58
2021/01/10 00:26:39;;;;;;;20.58;12.77;;;6.90;67.40;;;;;;2097215;28;20028;-59
2021/01/10 00:27:41;;;;;;;20.58;12.98;;;6.90;67.40;;;;;;2103264;28;20486;-58
2021/01/10 00:28:41;;;;;;;23.00;13.00;;;6.90;67.40;;;;;;2106658;28;20055;-58
2021/01/10 00:29:48;;;;;;;20.88;12.93;;;7.00;67.40;;;;;;2097997;28;20056;-59
2021/01/10 00:30:49;;;;;;;20.33;11.95;;;6.90;67.30;;;;;;2098170;28;20043;-59
2021/01/10 00:31:49;;;;;;;19.27;12.95;;;6.90;67.30;;;;;;2092226;28;20022;-59
2021/01/10 00:32:51;;;;;;;19.77;13.07;;;6.90;67.30;;;;;;2097754;28;20017;-59
2021/01/10 00:33:52;;;;;;;22.90;13.25;;;6.90;67.30;;;;;;2107308;28;20024;-59
2021/01/10 00:34:52;;;;;;;20.25;13.25;;;6.90;67.20;;;;;;2097851;28;20527;-59
2021/01/10 00:35:53;;;;;;;19.02;11.50;;;6.90;67.20;;;;;;2099877;28;20028;-59
2021/01/10 00:36:53;;;;;;;20.00;12.82;;;7.00;67.20;;;;;;2096848;28;20059;-59
2021/01/10 00:37:55;;;;;;;21.52;12.82;;;6.90;67.20;;;;;;2103471;28;20036;-59
2021/01/10 00:38:56;;;;;;;23.13;13.32;;;7.00;67.30;;;;;;2100300;28;20027;-59
2021/01/10 00:39:56;;;;;;;19.73;13.13;;;6.90;67.30;;;;;;2098773;28;20024;-59
2021/01/10 00:40:57;;;;;;;20.10;13.68;;;6.90;67.30;;;;;;2098451;28;20040;-59
2021/01/10 00:41:57;;;;;;;22.30;13.63;;;6.90;67.30;;;;;;2100510;28;20451;-59
2021/01/10 00:42:58;;;;;;;22.48;14.15;;;7.00;67.30;;;;;;2103638;28;20078;-59
2021/01/10 00:43:59;;;;;;;21.70;13.77;;;6.90;67.20;;;;;;2099651;28;20028;-59
2021/01/10 00:44:59;;;;;;;21.27;13.98;;;6.90;67.20;;;;;;2098515;28;20118;-59
2021/01/10 00:46:00;;;;;;;21.52;13.45;;;6.90;67.10;;;;;;2098130;28;20081;-59
2021/01/10 00:47:00;;;;;;;22.27;13.82;;;7.00;67.20;;;;;;2098417;28;20378;-59
2021/01/10 00:48:01;;;;;;;19.58;13.60;;;7.00;67.20;;;;;;2099924;28;20024;-58
2021/01/10 00:49:02;;;;;;;21.63;13.93;;;7.00;67.20;;;;;;2100426;28;20039;-59
2021/01/10 00:50:04;;;;;;;19.88;12.45;;;7.00;67.20;;;;;;2098768;28;20125;-59
2021/01/10 00:51:04;;;;;;;19.83;12.98;;;7.00;67.20;;;;;;2099315;28;20093;-59
2021/01/10 00:52:06;;;;;;;21.38;12.85;;;7.00;67.10;;;;;;2101553;28;20093;-59
2021/01/10 00:53:06;;;;;;;20.33;12.82;;;7.00;67.20;;;;;;2101929;28;20151;-59
2021/01/10 00:54:07;;;;;;;22.75;13.55;;;7.00;67.20;;;;;;2102826;28;20366;-59
2021/01/10 00:55:08;;;;;;;20.88;13.63;;;7.00;67.10;;;;;;2100893;28;20085;-59
2021/01/10 00:56:09;;;;;;;21.95;14.55;;;7.00;67.10;;;;;;2099632;28;20024;-59
2021/01/10 00:57:09;;;;;;;23.70;14.23;;;7.00;67.00;;;;;;2103541;28;20494;-59
2021/01/10 00:58:10;;;;;;;20.83;13.93;;;7.00;67.00;;;;;;2098381;28;20025;-59
2021/01/10 00:59:10;;;;;;;24.90;14.82;;;7.00;66.90;;;;;;2097109;28;20612;-59
2021/01/10 01:00:13;;;;;;;23.98;13.63;;;7.00;66.90;;;;;;2101795;28;20423;-59
2021/01/10 01:01:13;;;;;;;22.20;14.60;;;7.00;66.90;;;;;;2094432;28;20056;-59
2021/01/10 01:02:14;;;;;;;25.08;14.07;;;7.00;67.00;;;;;;2094967;28;20539;-59
2021/01/10 01:03:15;;;;;;;26.00;15.57;;;7.00;67.00;;;;;;2097155;28;20443;-59
2021/01/10 01:04:15;;;;;;;22.15;14.68;;;7.00;66.90;;;;;;2101298;28;20028;-59
2021/01/10 01:05:16;;;;;;;22.55;15.20;;;7.00;66.80;;;;;;2101570;28;20028;-59
2021/01/10 01:06:17;;;;;;;19.75;13.82;;;7.00;66.80;;;;;;2101867;28;20024;-59
2021/01/10 01:07:17;;;;;;;21.50;14.32;;;7.00;66.80;;;;;;2102687;28;20028;-59
2021/01/10 01:08:18;;;;;;;22.45;14.10;;;6.90;66.70;;;;;;2106070;28;20032;-59
2021/01/10 01:09:19;;;;;;;21.00;13.57;;;6.90;66.70;;;;;;2102332;28;20460;-59
2021/01/10 01:10:20;;;;;;;21.70;13.98;;;7.00;66.80;;;;;;2102907;28;20028;-60
2021/01/10 01:11:31;;;;;;;23.55;14.18;;;6.90;66.80;;;;;;2098008;28;20358;-59
2021/01/10 01:12:32;;;;;;;24.08;14.45;;;7.00;66.80;;;;;;2102910;28;20024;-59
2021/01/10 01:13:33;;;;;;;20.63;13.95;;;7.00;66.90;;;;;;2101837;28;20451;-59
2021/01/10 01:14:34;;;;;;;21.92;13.93;;;7.00;66.90;;;;;;2102326;28;20016;-59
2021/01/10 01:15:35;;;;;;;22.85;14.10;;;7.00;67.00;;;;;;2098247;28;20096;-59
2021/01/10 01:16:38;;;;;;;21.45;14.40;;;6.90;67.00;;;;;;2095546;28;20036;-58
2021/01/10 01:17:39;;;;;;;18.75;12.68;;;6.90;66.90;;;;;;2096959;28;20340;-59
2021/01/10 01:18:42;;;;;;;22.15;13.80;;;7.00;67.00;;;;;;2096991;28;20082;-59
2021/01/10 01:19:42;;;;;;;21.52;14.00;;;7.00;66.90;;;;;;2097017;28;20031;-59
2021/01/10 01:20:43;;;;;;;20.85;13.70;;;7.00;66.90;;;;;;2105856;28;20051;-59
2021/01/10 01:21:44;;;;;;;22.23;14.45;;;7.00;66.80;;;;;;2093091;28;20503;-59
2021/01/10 01:22:45;;;;;;;23.27;14.52;;;7.00;66.80;;;;;;2090372;28;20021;-59
2021/01/10 01:23:47;;;;;;;21.25;13.63;;;6.90;66.70;;;;;;2098311;28;20029;-59
2021/01/10 01:24:48;;;;;;;20.25;14.40;;;7.00;66.80;;;;;;2097738;28;20031;-59
2021/01/10 01:25:49;;;;;;;19.92;12.93;;;7.00;66.90;;;;;;2105613;28;20024;-59
2021/01/10 01:26:50;;;;;;;23.73;14.30;;;7.00;66.90;;;;;;2098016;28;20177;-59
2021/01/10 01:27:50;;;;;;;25.67;15.68;;;7.00;66.90;;;;;;2098154;28;20024;-59
2021/01/10 01:28:51;;;;;;;23.67;14.35;;;7.00;66.80;;;;;;2098659;28;20016;-59
2021/01/10 01:29:56;;;;;;;23.25;14.35;;;7.00;66.70;;;;;;2099254;28;20029;-59
2021/01/10 01:30:57;;;;;;;20.80;13.93;;;7.00;66.70;;;;;;2100661;28;20032;-59
2021/01/10 01:31:58;;;;;;;23.75;14.88;;;7.00;66.70;;;;;;2095688;28;20024;-59
2021/01/10 01:32:58;;;;;;;22.23;14.30;;;7.00;66.60;;;;;;2095937;28;20029;-59
2021/01/10 01:33:59;;;;;;;24.65;14.95;;;7.00;66.60;;;;;;2100416;28;20028;-59
2021/01/10 01:34:59;;;;;;;21.30;14.60;;;7.00;66.50;;;;;;2096059;28;20032;-59
2021/01/10 01:36:00;;;;;;;24.52;15.98;;;7.00;66.50;;;;;;2105537;28;20020;-59
2021/01/10 01:37:00;;;;;;;21.10;13.50;;;7.00;66.40;;;;;;2104325;28;20044;-59
2021/01/10 01:38:01;;;;;;;22.88;14.45;;;7.00;66.40;;;;;;2101825;28;20366;-59
2021/01/10 01:39:02;;;;;;;23.20;14.75;;;7.00;66.40;;;;;;2100302;28;20032;-59
2021/01/10 01:40:05;;;;;;;22.15;14.48;;;7.00;66.50;;;;;;2098234;28;20032;-59
2021/01/10 01:41:08;;;;;;;25.02;14.43;;;7.00;66.50;;;;;;2100228;28;20054;-59
2021/01/10 01:42:13;;;;;;;24.20;14.40;;;7.00;66.50;;;;;;2101047;28;20111;-59
2021/01/10 01:43:15;;;;;;;24.02;15.40;;;7.00;66.50;;;;;;2098106;28;20191;-59
2021/01/10 01:44:16;;;;;;;21.80;14.98;;;7.00;66.60;;;;;;2098057;28;20036;-59
2021/01/10 01:45:17;;;;;;;26.95;15.35;;;7.00;66.60;;;;;;2098051;28;20024;-59
2021/01/10 01:46:37;;;;;;;25.38;15.27;;;7.00;66.60;;;;;;2097407;28;20047;-59
2021/01/10 01:47:39;;;;;;;24.20;15.13;;;7.00;66.50;;;;;;2096814;28;20040;-59
2021/01/10 01:48:42;;;;;;;23.25;14.27;;;7.00;66.60;;;;;;2101960;28;20024;-60
2021/01/10 01:49:43;;;;;;;22.90;14.68;;;7.00;66.50;;;;;;2098126;28;20048;-59
2021/01/10 01:50:44;;;;;;;24.63;14.48;;;7.00;66.60;;;;;;2097063;28;20355;-59
2021/01/10 01:51:45;;;;;;;22.30;15.23;;;7.00;66.60;;;;;;2098345;28;20029;-59
2021/01/10 01:52:45;;;;;;;24.30;14.52;;;7.00;66.60;;;;;;2098348;28;20099;-59
2021/01/10 01:53:47;;;;;;;24.20;15.68;;;7.00;66.60;;;;;;2102503;28;20126;-59
2021/01/10 01:54:48;;;;;;;24.90;15.20;;;7.00;66.60;;;;;;2100893;28;20033;-59
2021/01/10 01:55:55;;;;;;;24.73;15.95;;;7.00;66.60;;;;;;2094779;28;20525;-59
2021/01/10 01:56:56;;;;;;;24.15;14.75;;;7.00;66.50;;;;;;2097828;28;20040;-59
2021/01/10 01:57:58;;;;;;;26.40;15.27;;;7.00;66.50;;;;;;2100020;28;20038;-59
2021/01/10 01:59:10;;;;;;;24.23;14.35;;;7.00;67.20;;;;;;2103508;28;20375;-59
2021/01/10 02:00:11;;;;;;;20.60;14.35;;;7.00;66.50;;;;;;2098275;28;20016;-59
2021/01/10 02:01:12;;;;;;;23.90;14.82;;;7.00;66.60;;;;;;2097576;28;20185;-59
2021/01/10 02:02:13;;;;;;;21.85;14.50;;;7.00;66.50;;;;;;2098011;28;20500;-59
2021/01/10 02:03:35;;;;;;;25.95;15.02;;;7.00;66.50;;;;;;2101539;28;20024;-59
2021/01/10 02:04:44;;;;;;;20.55;14.52;;;7.00;66.40;;;;;;2097211;28;20017;-59
2021/01/10 02:05:45;;;;;;;24.65;14.98;;;7.00;66.40;;;;;;2094071;28;20032;-59
2021/01/10 02:07:04;;;;;;;23.50;14.85;;;7.10;66.50;;;;;;2096570;28;20119;-59
2021/01/10 02:08:08;;;;;;;24.35;16.25;;;7.10;66.30;;;;;;2099594;28;20349;-59
2021/01/10 02:09:12;;;;;;;24.75;15.90;;;7.10;66.30;;;;;;2099568;28;20039;-59
2021/01/10 02:10:14;;;;;;;27.77;15.88;;;7.00;66.20;;;;;;2097852;28;20029;-59
2021/01/10 02:11:17;;;;;;;24.02;14.38;;;7.00;66.10;;;;;;2096653;28;20502;-59
2021/01/10 02:12:18;;;;;;;25.02;14.88;;;7.00;66.20;;;;;;2095211;28;20025;-59
2021/01/10 02:13:20;;;;;;;24.80;15.60;;;7.10;66.20;;;;;;2098416;28;20457;-59
2021/01/10 02:14:25;;;;;;;22.33;15.02;;;7.00;66.10;;;;;;2102400;28;20116;-59
2021/01/10 02:15:30;;;;;;;23.15;14.95;;;7.00;66.10;;;;;;2099534;28;20023;-59
2021/01/10 02:16:32;;;;;;;25.63;16.10;;;7.00;66.20;;;;;;2100466;28;20020;-59
2021/01/10 02:17:34;;;;;;;24.23;15.20;;;7.00;66.20;;;;;;2096328;28;20505;-59
2021/01/10 02:18:36;;;;;;;26.58;16.20;;;7.00;66.20;;;;;;2094992;28;20497;-59
2021/01/10 02:20:07;;;;;;;24.75;14.73;;;7.00;66.30;;;;;;2099402;28;20493;-59
2021/01/10 02:21:09;;;;;;;23.55;15.02;;;7.00;66.20;;;;;;2092346;28;20512;-58
2021/01/10 02:22:11;;;;;;;25.05;15.07;;;7.00;66.30;;;;;;2096451;28;20077;-59
2021/01/10 02:23:20;;;;;;;26.80;16.30;;;7.00;66.30;;;;;;2094421;28;20035;-59
2021/01/10 02:24:20;;;;;;;26.60;15.52;;;7.00;66.20;;;;;;2094703;28;20470;-59
2021/01/10 02:25:23;;;;;;;24.92;15.82;;;7.00;66.20;;;;;;2099824;28;20028;-59
2021/01/10 02:26:23;;;;;;;29.60;16.35;;;7.00;66.20;;;;;;2097283;28;20084;-59
2021/01/10 02:27:24;;;;;;;31.30;16.38;;;7.00;66.20;;;;;;2096006;28;20499;-59
2021/01/10 02:28:30;;;;;;;23.00;14.80;;;7.00;66.10;;;;;;2099972;28;20092;-59
2021/01/10 02:29:33;;;;;;;29.73;17.80;;;7.00;66.10;;;;;;2097834;28;20032;-58
2021/01/10 02:30:34;;;;;;;26.40;15.07;;;7.00;66.20;;;;;;2097021;28;20082;-59
2021/01/10 02:31:38;;;;;;;26.48;16.13;;;7.00;66.20;;;;;;2096797;28;20028;-59
2021/01/10 02:32:44;;;;;;;27.40;16.05;;;7.00;66.20;;;;;;2097519;28;20050;-59
2021/01/10 02:33:49;;;;;;;27.55;16.55;;;7.00;66.20;;;;;;2090010;28;20059;-59
2021/01/10 02:34:51;;;;;;;29.77;16.58;;;7.00;66.10;;;;;;2100364;28;20020;-59
2021/01/10 02:35:54;;;;;;;25.50;17.02;;;7.00;66.10;;;;;;2104797;28;20085;-59
2021/01/10 02:37:08;;;;;;;25.75;15.73;;;7.00;66.00;;;;;;2100344;28;20047;-59
2021/01/10 02:38:36;;;;;;;24.45;15.15;;;7.00;66.00;;;;;;2098481;28;20020;-59
2021/01/10 02:40:05;;;;;;;24.88;14.40;;;7.00;65.90;;;;;;2098235;28;20039;-59
2021/01/10 02:41:24;;;;;;;26.00;16.35;;;7.00;65.80;;;;;;2098777;28;20036;-59
2021/01/10 02:42:35;;;;;;;26.73;16.63;;;7.00;65.60;;;;;;2099505;28;20019;-59
2021/01/10 02:43:38;;;;;;;28.25;16.23;;;7.00;65.50;;;;;;2097852;28;20032;-59
2021/01/10 02:44:45;;;;;;;26.92;16.25;;;7.00;65.50;;;;;;2092418;28;20028;-59
2021/01/10 02:45:48;;;;;;;27.55;16.85;;;6.90;65.30;;;;;;2095972;28;20111;-59
2021/01/10 02:46:53;;;;;;;27.75;16.25;;;6.90;65.30;;;;;;2100705;28;20104;-59
2021/01/10 02:47:54;;;;;;;27.65;16.73;;;6.90;65.10;;;;;;2095385;28;20035;-58
2021/01/10 02:48:55;;;;;;;26.45;15.70;;;6.90;65.10;;;;;;2098714;28;20059;-58
2021/01/10 02:49:56;;;;;;;27.05;16.05;;;6.90;65.10;;;;;;2104627;28;20020;-58
2021/01/10 02:50:56;;;;;;;25.00;16.73;;;6.90;65.10;;;;;;2095321;28;20075;-59
2021/01/10 02:51:57;;;;;;;28.92;16.55;;;6.80;65.10;;;;;;2097274;28;20027;-59
2021/01/10 02:52:57;;;;;;;26.25;16.20;;;6.80;65.20;;;;;;2092085;28;20025;-59
2021/01/10 02:53:58;;;;;;;27.63;16.55;;;6.80;65.10;;;;;;2097737;28;20659;-59
2021/01/10 02:54:59;;;;;;;27.92;16.45;;;6.80;65.20;;;;;;2104213;28;20067;-59
2021/01/10 02:56:00;;;;;;;24.95;15.80;;;6.80;65.20;;;;;;2095982;28;20081;-59
2021/01/10 02:57:29;;;;;;;27.17;16.00;;;6.80;65.30;;;;;;2100949;28;20538;-59
2021/01/10 02:58:30;;;;;;;28.73;16.80;;;6.70;65.30;;;;;;2102220;28;20023;-59
2021/01/10 02:59:35;;;;;;;27.40;16.35;;;6.70;65.30;;;;;;2099472;28;20028;-59
2021/01/10 03:00:38;;;;;;;29.73;16.63;;;6.70;65.30;;;;;;2099858;28;20052;-59
2021/01/10 03:01:39;;;;;;;26.73;16.45;;;6.70;65.30;;;;;;2096835;28;20050;-59
2021/01/10 03:02:42;;;;;;;29.50;16.38;;;6.70;65.30;;;;;;2097260;28;20418;-59
2021/01/10 03:03:43;;;;;;;27.20;17.05;;;6.70;65.30;;;;;;2096929;28;20021;-59
2021/01/10 03:04:44;;;;;;;29.98;18.30;;;6.70;65.30;;;;;;2100173;28;20615;-59
2021/01/10 03:05:45;;;;;;;29.55;17.33;;;6.60;65.30;;;;;;2092383;28;20074;-59
2021/01/10 03:06:46;;;;;;;31.77;17.95;;;6.60;65.30;;;;;;2101569;28;20622;-59
2021/01/10 03:07:47;;;;;;;32.05;17.90;;;6.60;65.30;;;;;;2099829;28;20036;-59
2021/01/10 03:08:48;;;;;;;28.25;16.98;;;6.60;65.30;;;;;;2094394;28;20029;-59
2021/01/10 03:09:50;;;;;;;33.22;17.52;;;6.60;65.40;;;;;;2098118;28;20017;-59
2021/01/10 03:10:51;;;;;;;30.38;17.42;;;6.60;65.30;;;;;;2099569;28;20087;-59
2021/01/10 03:11:53;;;;;;;29.80;17.48;;;6.60;65.30;;;;;;2096982;28;20415;-59
2021/01/10 03:12:54;;;;;;;29.02;17.00;;;6.60;65.30;;;;;;2098730;28;20024;-59
2021/01/10 03:13:55;;;;;;;28.20;18.30;;;6.50;65.30;;;;;;2092278;28;20120;-59
2021/01/10 03:15:00;;;;;;;31.13;17.95;;;6.50;65.30;;;;;;2096801;28;20621;-59
2021/01/10 03:16:02;;;;;;;31.48;17.80;;;6.50;65.20;;;;;;2099751;28;20120;-59
2021/01/10 03:17:02;;;;;;;35.17;18.48;;;6.50;65.30;;;;;;2100100;28;20064;-59
2021/01/10 03:18:18;;;;;;;26.65;16.50;;;6.50;65.30;;;;;;2097686;28;20032;-59
2021/01/10 03:19:18;;;;;;;28.83;17.52;;;6.50;65.30;;;;;;2096069;28;20080;-59
2021/01/10 03:20:21;;;;;;;30.35;17.92;;;6.50;66.00;;;;;;2100834;28;20081;-59
2021/01/10 03:21:21;;;;;;;28.63;17.58;;;6.50;65.40;;;;;;2098081;28;20032;-60
2021/01/10 03:22:22;;;;;;;30.83;17.48;;;6.50;65.30;;;;;;2099915;28;20354;-59
2021/01/10 03:23:22;;;;;;;30.55;18.77;;;6.50;65.30;;;;;;2097937;28;20043;-60
2021/01/10 03:24:23;;;;;;;31.10;19.15;;;6.40;65.20;;;;;;2097316;28;20384;-60
2021/01/10 03:25:23;;;;;;;30.33;17.58;;;6.40;65.30;;;;;;2100348;28;20677;-60
2021/01/10 03:26:24;;;;;;;25.90;17.00;;;6.40;65.30;;;;;;2099176;28;20045;-59
2021/01/10 03:27:24;;;;;;;31.95;18.60;;;6.40;65.30;;;;;;2097931;28;20024;-60
2021/01/10 03:28:25;;;;;;;26.75;16.73;;;6.40;65.40;;;;;;2102462;28;20024;-60
2021/01/10 03:29:25;;;;;;;30.95;18.55;;;6.40;65.40;;;;;;2098129;28;20328;-60
2021/01/10 03:30:26;;;;;;;31.35;18.45;;;6.40;65.40;;;;;;2100933;28;20032;-59
2021/01/10 03:31:27;;;;;;;33.80;19.13;;;6.40;65.40;;;;;;2099693;28;20166;-59
2021/01/10 03:32:27;;;;;;;31.38;17.58;;;6.40;65.40;;;;;;2097756;28;20032;-59
2021/01/10 03:33:28;;;;;;;34.28;17.98;;;6.30;65.40;;;;;;2103095;28;20095;-59
2021/01/10 03:34:28;;;;;;;34.55;18.80;;;6.30;65.40;;;;;;2102179;28;20482;-59
2021/01/10 03:35:29;;;;;;;29.42;17.48;;;6.30;65.40;;;;;;2103711;28;20086;-59
2021/01/10 03:36:30;;;;;;;37.60;18.30;;;6.30;65.40;;;;;;2095991;28;20116;-59
2021/01/10 03:37:31;;;;;;;34.78;18.48;;;6.30;65.50;;;;;;2101563;28;20025;-60
2021/01/10 03:38:31;;;;;;;37.17;17.08;;;6.30;65.50;;;;;;2097167;28;20029;-59
2021/01/10 03:39:32;;;;;;;37.40;18.52;;;6.30;65.50;;;;;;2099683;28;20024;-59
2021/01/10 03:40:33;;;;;;;40.38;17.30;;;6.30;65.50;;;;;;2104484;28;20030;-60
2021/01/10 03:41:33;;;;;;;46.33;17.45;;;6.30;65.60;;;;;;2101584;28;20138;-59
2021/01/10 03:42:35;;;;;;;41.15;17.65;;;6.30;65.60;;;;;;2102274;28;20115;-59
2021/01/10 03:43:35;;;;;;;48.50;18.85;;;6.30;65.70;;;;;;2098164;28;20104;-59
2021/01/10 03:44:36;;;;;;;48.25;16.65;;;6.30;65.70;;;;;;2096652;28;20106;-59
2021/01/10 03:45:37;;;;;;;56.80;17.63;;;6.30;65.80;;;;;;2097028;28;20474;-59
2021/01/10 03:46:37;;;;;;;53.13;16.60;;;6.20;66.50;;;;;;2096578;28;20035;-60
2021/01/10 03:47:38;;;;;;;44.60;16.23;;;6.20;65.80;;;;;;2095913;28;20453;-60
2021/01/10 03:48:38;;;;;;;35.80;15.23;;;6.20;65.80;;;;;;2099076;28;20385;-60
2021/01/10 03:49:39;;;;;;;39.10;15.85;;;6.20;65.80;;;;;;2097042;28;20028;-59
2021/01/10 03:50:39;;;;;;;52.03;15.88;;;6.20;65.80;;;;;;2102770;28;20075;-58
2021/01/10 03:51:40;;;;;;;72.32;16.92;;;6.20;65.90;;;;;;2096886;28;20028;-59
2021/01/10 03:52:40;;;;;;;45.58;15.65;;;6.20;65.90;;;;;;2099309;28;20021;-59
2021/01/10 03:53:41;;;;;;;38.95;15.15;;;6.20;65.90;;;;;;2096906;28;20024;-60
2021/01/10 03:54:42;;;;;;;49.83;16.08;;;6.20;66.00;;;;;;2097296;28;20024;-59
2021/01/10 03:55:42;;;;;;;46.10;15.48;;;6.20;66.00;;;;;;2094634;28;20355;-59
2021/01/10 03:56:43;;;;;;;49.67;15.90;;;6.20;66.00;;;;;;2097489;28;20016;-60
2021/01/10 03:57:43;;;;;;;43.40;14.75;;;6.20;66.10;;;;;;2094908;28;20017;-60
2021/01/10 03:58:44;;;;;;;83.68;15.18;;;6.20;66.10;;;;;;2095304;28;20025;-59
2021/01/10 03:59:44;;;;;;;44.08;15.52;;;6.20;66.10;;;;;;2099484;28;20380;-59
2021/01/10 04:00:45;;;;;;;40.63;14.85;;;6.20;66.10;;;;;;2093439;28;20010;-60
2021/01/10 04:01:45;;;;;;;58.20;15.73;;;6.10;66.10;;;;;;2104109;28;20545;-60
2021/01/10 04:02:46;;;;;;;39.88;15.23;;;6.10;66.10;;;;;;2097176;28;20032;-60
2021/01/10 04:03:46;;;;;;;50.78;15.27;;;6.10;66.10;;;;;;2098313;28;20128;-59
2021/01/10 04:04:47;;;;;;;46.65;14.90;;;6.10;66.10;;;;;;2099492;28;20043;-59
2021/01/10 04:05:47;;;;;;;52.03;15.32;;;6.10;66.20;;;;;;2091822;28;20025;-60
2021/01/10 04:06:48;;;;;;;57.88;15.43;;;6.10;66.10;;;;;;2098223;28;20029;-59
2021/01/10 04:07:48;;;;;;;32.13;13.55;;;6.10;66.20;;;;;;2102368;28;20112;-59
2021/01/10 04:08:49;;;;;;;40.63;14.65;;;6.10;66.20;;;;;;2099623;28;20025;-59
2021/01/10 04:09:49;;;;;;;72.20;15.63;;;6.10;66.20;;;;;;2099466;28;20102;-59
2021/01/10 04:10:50;;;;;;;39.17;13.43;;;6.10;66.20;;;;;;2096420;28;20634;-59
2021/01/10 04:11:51;;;;;;;46.90;13.95;;;6.10;66.10;;;;;;2096922;28;20005;-59
2021/01/10 04:12:51;;;;;;;29.40;13.35;;;6.10;66.20;;;;;;2098290;28;20031;-59
2021/01/10 04:13:52;;;;;;;50.72;13.90;;;6.10;66.30;;;;;;2094583;28;20056;-59
2021/01/10 04:14:55;;;;;;;37.38;13.88;;;6.10;66.50;;;;;;2096298;28;20645;-59
2021/01/10 04:15:56;;;;;;;40.50;13.18;;;6.10;66.40;;;;;;2097982;28;20127;-59
2021/01/10 04:16:57;;;;;;;64.78;13.80;;;6.10;66.40;;;;;;2098933;28;20032;-59
2021/01/10 04:17:57;;;;;;;34.38;13.77;;;6.00;66.20;;;;;;2097194;28;20048;-59
2021/01/10 04:18:58;;;;;;;44.17;12.65;;;6.10;66.10;;;;;;2096544;28;20021;-59
2021/01/10 04:19:58;;;;;;;33.80;12.02;;;6.00;65.90;;;;;;2097779;28;20100;-59
2021/01/10 04:21:01;;;;;;;27.48;12.25;;;6.00;65.90;;;;;;2104588;28;20024;-60
2021/01/10 04:22:01;;;;;;;27.10;12.00;;;6.00;66.00;;;;;;2096575;28;20029;-59
2021/01/10 04:23:02;;;;;;;32.75;13.43;;;6.00;66.00;;;;;;2099930;28;20035;-59
2021/01/10 04:24:04;;;;;;;31.88;12.07;;;6.00;66.00;;;;;;2094185;28;20040;-59
2021/01/10 04:25:05;;;;;;;30.38;12.85;;;6.00;66.00;;;;;;2098355;28;20063;-59
2021/01/10 04:26:06;;;;;;;30.05;12.05;;;6.00;65.90;;;;;;2102779;28;20023;-59
2021/01/10 04:27:06;;;;;;;31.67;13.07;;;5.90;65.90;;;;;;2097051;28;20115;-60
2021/01/10 04:28:07;;;;;;;33.33;13.25;;;5.90;65.90;;;;;;2101742;28;20032;-59
2021/01/10 04:29:07;;;;;;;26.52;12.18;;;5.90;65.90;;;;;;2105535;28;20059;-59
2021/01/10 04:30:08;;;;;;;27.17;12.95;;;5.90;66.00;;;;;;2098614;28;20020;-60
2021/01/10 04:31:09;;;;;;;29.45;12.10;;;5.90;66.00;;;;;;2103607;28;20055;-59
2021/01/10 04:32:09;;;;;;;32.33;12.55;;;5.90;66.00;;;;;;2098745;28;20045;-59
2021/01/10 04:33:10;;;;;;;32.22;13.52;;;5.90;66.10;;;;;;2102358;28;20035;-59
2021/01/10 04:34:11;;;;;;;31.88;13.18;;;5.90;66.10;;;;;;2106865;28;20117;-59
2021/01/10 04:35:11;;;;;;;30.65;13.40;;;5.80;66.10;;;;;;2102892;28;20031;-59
2021/01/10 04:36:12;;;;;;;33.95;12.48;;;5.80;66.20;;;;;;2101966;28;20368;-59
2021/01/10 04:37:12;;;;;;;37.42;12.93;;;5.80;66.30;;;;;;2102655;28;20024;-59
2021/01/10 04:38:13;;;;;;;46.50;12.63;;;5.80;66.10;;;;;;2099024;28;20028;-59
2021/01/10 04:39:15;;;;;;;28.70;12.63;;;5.80;66.10;;;;;;2099694;28;20033;-59
2021/01/10 04:40:16;;;;;;;31.60;12.98;;;5.80;65.90;;;;;;2098826;28;20020;-59
2021/01/10 04:41:17;;;;;;;32.95;14.07;;;5.80;65.90;;;;;;2101283;28;20066;-59
2021/01/10 04:42:19;;;;;;;30.42;12.60;;;5.80;66.10;;;;;;2098344;28;20060;-59
2021/01/10 04:43:20;;;;;;;33.35;12.63;;;5.70;65.90;;;;;;2103495;28;20093;-59
2021/01/10 04:44:23;;;;;;;35.47;12.52;;;5.70;65.90;;;;;;2099043;28;20081;-59
2021/01/10 04:45:24;;;;;;;39.85;12.20;;;5.70;66.00;;;;;;2098529;28;20021;-59
2021/01/10 04:46:26;;;;;;;30.27;12.30;;;5.70;66.10;;;;;;2097806;28;20580;-59
2021/01/10 04:47:27;;;;;;;33.22;13.32;;;5.70;66.00;;;;;;2098632;28;20036;-59
2021/01/10 04:48:28;;;;;;;34.65;12.85;;;5.70;66.00;;;;;;2102740;28;20033;-59
2021/01/10 04:49:28;;;;;;;30.92;12.98;;;5.60;66.00;;;;;;2097886;28;20420;-59
2021/01/10 04:50:32;;;;;;;24.20;13.00;;;5.60;66.10;;;;;;2102706;28;20028;-59
2021/01/10 04:51:36;;;;;;;23.45;12.43;;;5.60;66.10;;;;;;2104232;28;20084;-59
2021/01/10 04:52:38;;;;;;;28.15;13.55;;;5.60;66.20;;;;;;2100609;28;20028;-59
2021/01/10 04:53:39;;;;;;;40.90;13.63;;;5.60;66.20;;;;;;2098770;28;20035;-59
2021/01/10 04:54:41;;;;;;;35.28;13.45;;;5.50;66.10;;;;;;2098012;28;20382;-59
2021/01/10 04:55:44;;;;;;;22.88;13.60;;;5.60;66.10;;;;;;2103845;28;20075;-59
2021/01/10 04:56:44;;;;;;;24.77;13.45;;;5.60;66.20;;;;;;2090547;28;20040;-59
2021/01/10 04:57:48;;;;;;;22.73;14.48;;;5.60;66.30;;;;;;2099644;28;20442;-59
2021/01/10 04:58:52;;;;;;;31.17;14.25;;;5.50;66.40;;;;;;2098555;28;20028;-59
2021/01/10 04:59:54;;;;;;;25.35;14.27;;;5.60;66.50;;;;;;2100006;28;20021;-59
2021/01/10 05:00:57;;;;;;;31.27;14.18;;;5.50;66.40;;;;;;2098977;28;20017;-59
2021/01/10 05:02:01;;;;;;;32.38;14.15;;;5.60;66.60;;;;;;2098473;28;20020;-59
2021/01/10 05:03:11;;;;;;;33.53;14.75;;;5.50;66.50;;;;;;2097195;28;20105;-59
2021/01/10 05:04:11;;;;;;;19.48;13.65;;;5.50;66.50;;;;;;2095981;28;20026;-59
2021/01/10 05:05:13;;;;;;;28.40;15.77;;;5.50;66.50;;;;;;2101861;28;20027;-59
2021/01/10 05:06:17;;;;;;;38.83;15.65;;;5.60;66.70;;;;;;2098408;28;20469;-59
2021/01/10 05:07:18;;;;;;;46.65;16.58;;;5.50;66.60;;;;;;2098362;28;20056;-59
2021/01/10 05:08:18;;;;;;;38.95;16.58;;;5.60;66.60;;;;;;2103447;28;20397;-59
2021/01/10 05:09:20;;;;;;;47.45;16.77;;;5.60;66.50;;;;;;2097346;28;20028;-59
2021/01/10 05:10:21;;;;;;;34.80;17.20;;;5.50;66.50;;;;;;2097074;28;20036;-59
2021/01/10 05:11:21;;;;;;;33.13;15.90;;;5.50;66.40;;;;;;2097656;28;20028;-59
2021/01/10 05:12:22;;;;;;;42.83;17.17;;;5.50;66.50;;;;;;2101036;28;20031;-59
2021/01/10 05:13:23;;;;;;;31.85;17.02;;;5.60;66.50;;;;;;2102028;28;20323;-59
2021/01/10 05:14:23;;;;;;;29.83;16.63;;;5.50;66.40;;;;;;2097610;28;20023;-59
2021/01/10 05:15:24;;;;;;;34.65;17.15;;;5.60;66.50;;;;;;2098396;28;20016;-59
2021/01/10 05:16:30;;;;;;;27.17;15.95;;;5.60;66.50;;;;;;2098467;28;20020;-59
2021/01/10 05:17:32;;;;;;;27.40;15.88;;;5.50;66.40;;;;;;2098199;28;20020;-59
2021/01/10 05:18:33;;;;;;;31.55;15.75;;;5.50;67.10;;;;;;2099754;28;20097;-59